Decoded Metar for PABE (BETHEL in AK, USA) (IATA:BET) | Meteo·Mobile Aviation Weather
aviador You're here:

PABE Decoded Metar

BETHEL in AK, USA
Report Time2018-11-12 21:53:00
UTC Time2018-11-12 22:02:25
Flight Rules vfr VFR
Wind020° at 12 kt
W.Decomp.*RWY 01: 12.0 kt HW 0.8 kt LCW
RWY 30: 4.9 kt HW 11.0 kt RCW
W.Rank020° ranks 1
Current wind is above 020° avg. (10.4)
Visibility9999 m
Phenomena:N/A
Clouds:Scattered 007 Hf
Broken 110 Hf
Expected CloudBase > 400 ft AGL from Temp-Dew spread
Ceiling11,000 ft
Temp-4°C (ISA -19)
Dew Point-5°C (93% RH)
AAT-10.9°C
QNH1000 hPa
Density Alt-1,670 ft
Elevation135 ft
Report Wrong Elevation
Raw Report
PABE 122153Z 02012KT 10SM SCT007 BKN110 M04/M05 A2954 RMK AO2
SLP006 T10441050 $=

Extra information for PABE:More info

Metar Taf Metar & Taf Last 4 Metars F.Rules Stats Wind Profile Meteogram Temp Stats Airport Information Weather charts Add Link Nearby VenuesMetar ALERT Operation Metar Decoded Social comments

AIRNAV info for PABE